Time;durP1;ratioP1;P1;durP2;ratioP2;P2;SDS_P1;SDS_P2;PMS_P1;PMS_P2;Temp;Humidity;BMP_temperature;BMP_pressure;BME280_temperature;BME280_humidity;BME280_pressure;Samples;Min_cycle;Max_cycle;Signal;HPM_P1;HPM_P2
2021/09/10 00:00:15;;;;;;;33.60;24.10;;;19.50;99.90;;;;;;5068280;28;20048;-83
2021/09/10 00:02:40;;;;;;;37.15;25.13;;;19.60;99.90;;;;;;5050982;28;20056;-83
2021/09/10 00:05:08;;;;;;;35.55;26.13;;;19.60;99.90;;;;;;5067441;28;20055;-85
2021/09/10 00:07:34;;;;;;;33.80;26.13;;;19.60;99.90;;;;;;5052915;28;20040;-82
2021/09/10 00:10:00;;;;;;;35.72;27.65;;;19.60;99.90;;;;;;5051321;28;20052;-81
2021/09/10 00:12:25;;;;;;;37.97;27.52;;;19.60;99.90;;;;;;5067764;28;20139;-83
2021/09/10 00:14:51;;;;;;;39.90;28.13;;;19.50;99.90;;;;;;5053036;28;20036;-83
2021/09/10 00:17:17;;;;;;;40.75;28.33;;;19.60;99.90;;;;;;5066917;28;20043;-81
2021/09/10 00:19:42;;;;;;;40.20;29.23;;;19.50;99.90;;;;;;5053987;28;20109;-81
2021/09/10 00:22:08;;;;;;;41.80;29.15;;;19.50;99.90;;;;;;5064081;28;20086;-81
2021/09/10 00:24:34;;;;;;;42.20;29.42;;;19.50;99.90;;;;;;5066081;28;20054;-83
2021/09/10 00:27:00;;;;;;;40.08;28.80;;;19.50;99.90;;;;;;5063922;28;20045;-83
2021/09/10 00:29:25;;;;;;;41.05;27.52;;;19.50;99.90;;;;;;5064556;28;20072;-81
2021/09/10 00:31:51;;;;;;;38.97;27.55;;;19.50;99.90;;;;;;5067080;28;20487;-84
2021/09/10 00:34:17;;;;;;;39.78;28.15;;;19.40;99.90;;;;;;5066648;28;20041;-83
2021/09/10 00:36:46;;;;;;;41.55;27.48;;;19.40;99.90;;;;;;5065417;28;20033;-82
2021/09/10 00:39:13;;;;;;;40.35;26.77;;;19.40;99.90;;;;;;5066320;28;20211;-82
2021/09/10 00:41:40;;;;;;;37.78;25.05;;;19.40;99.90;;;;;;5049256;28;20076;-84
2021/09/10 00:44:06;;;;;;;35.08;24.95;;;19.40;99.90;;;;;;5067133;28;20098;-80
2021/09/10 00:46:32;;;;;;;33.53;26.33;;;19.40;99.90;;;;;;5050069;28;20103;-86
2021/09/10 00:48:58;;;;;;;40.85;26.00;;;19.40;99.90;;;;;;5049296;28;20052;-81
2021/09/10 00:51:25;;;;;;;41.05;25.15;;;19.40;99.90;;;;;;5065018;28;20353;-80
2021/09/10 00:53:50;;;;;;;36.38;24.20;;;19.40;99.90;;;;;;5066982;28;20059;-84
2021/09/10 00:56:17;;;;;;;34.45;25.60;;;19.40;99.90;;;;;;5064525;28;20524;-81
2021/09/10 00:58:43;;;;;;;33.72;24.23;;;19.40;99.90;;;;;;5064462;28;20083;-82
2021/09/10 01:01:08;;;;;;;32.42;24.02;;;19.40;99.90;;;;;;5060743;28;20080;-83
2021/09/10 01:03:34;;;;;;;34.47;24.45;;;19.40;99.90;;;;;;5064673;28;20036;-85
2021/09/10 01:06:03;;;;;;;34.35;23.38;;;19.40;99.90;;;;;;5061588;28;20049;-82
2021/09/10 01:08:30;;;;;;;30.45;23.00;;;19.40;99.90;;;;;;5061429;28;20102;-82
2021/09/10 01:11:00;;;;;;;34.05;24.08;;;19.40;99.90;;;;;;5042802;28;20055;-83
2021/09/10 01:13:27;;;;;;;35.38;23.73;;;19.40;99.90;;;;;;5059046;28;20364;-82
2021/09/10 01:15:53;;;;;;;36.50;22.88;;;19.40;99.90;;;;;;5065045;28;20086;-83
2021/09/10 01:18:19;;;;;;;30.73;22.08;;;19.40;99.90;;;;;;5064820;28;20036;-84
2021/09/10 01:20:49;;;;;;;31.95;22.42;;;19.40;99.90;;;;;;5062851;28;20557;-85
2021/09/10 01:23:16;;;;;;;32.85;22.52;;;19.40;99.90;;;;;;5065204;28;20112;-85
2021/09/10 01:25:42;;;;;;;31.20;22.10;;;19.30;99.90;;;;;;5047926;28;20040;-82
2021/09/10 01:28:08;;;;;;;32.88;23.42;;;19.40;99.90;;;;;;5045065;28;20456;-81
2021/09/10 01:30:36;;;;;;;32.28;23.15;;;19.30;99.90;;;;;;5065433;28;20390;-82
2021/09/10 01:33:05;;;;;;;31.27;22.40;;;19.40;99.90;;;;;;5064693;28;20460;-84
2021/09/10 01:35:31;;;;;;;33.78;23.15;;;19.30;99.90;;;;;;5065482;28;20461;-82
2021/09/10 01:37:57;;;;;;;34.15;23.77;;;19.30;99.90;;;;;;5066347;28;20048;-84
2021/09/10 01:40:24;;;;;;;28.55;22.63;;;19.30;99.90;;;;;;5064732;28;20061;-83
2021/09/10 01:42:50;;;;;;;30.42;21.63;;;19.30;99.90;;;;;;5061756;28;20086;-84
2021/09/10 01:45:17;;;;;;;26.70;20.05;;;19.20;99.90;;;;;;5065413;28;20155;-82
2021/09/10 01:47:43;;;;;;;27.88;20.58;;;19.30;99.90;;;;;;5048494;28;20053;-82
2021/09/10 01:50:11;;;;;;;29.52;21.70;;;19.30;99.90;;;;;;5063845;28;20101;-84
2021/09/10 01:52:37;;;;;;;28.98;20.58;;;19.30;99.90;;;;;;5065533;28;20466;-81
2021/09/10 01:55:05;;;;;;;31.17;21.00;;;19.30;99.90;;;;;;5065279;28;20111;-82
2021/09/10 01:57:30;;;;;;;28.33;20.05;;;19.30;99.90;;;;;;5052566;28;20072;-84
2021/09/10 01:59:57;;;;;;;28.50;21.00;;;19.30;99.90;;;;;;5069087;28;20389;-83
2021/09/10 02:02:22;;;;;;;26.77;21.10;;;19.30;99.90;;;;;;5066299;28;20086;-83
2021/09/10 02:04:48;;;;;;;37.22;22.65;;;19.30;99.90;;;;;;5088443;28;20040;-80
2021/09/10 02:07:14;;;;;;;27.73;21.33;;;19.30;99.90;;;;;;5067640;28;20079;-86
2021/09/10 02:09:39;;;;;;;30.85;22.45;;;19.20;99.90;;;;;;5048290;28;20437;-86
2021/09/10 02:12:06;;;;;;;30.63;22.73;;;19.20;99.90;;;;;;5071689;28;20377;-81
2021/09/10 02:14:32;;;;;;;30.75;22.10;;;19.20;99.90;;;;;;5068352;28;20036;-82
2021/09/10 02:16:58;;;;;;;30.55;22.05;;;19.20;99.90;;;;;;5048583;28;20462;-82
2021/09/10 02:19:24;;;;;;;27.13;21.40;;;19.20;99.90;;;;;;5042442;28;20135;-87
2021/09/10 02:21:50;;;;;;;30.48;22.50;;;19.20;99.90;;;;;;5063528;28;20033;-84
2021/09/10 02:24:16;;;;;;;35.92;23.08;;;19.20;99.90;;;;;;5069132;28;20029;-82
2021/09/10 02:26:43;;;;;;;31.27;23.08;;;19.10;99.90;;;;;;5076268;28;20456;-83
2021/09/10 02:29:10;;;;;;;30.17;22.83;;;19.20;99.90;;;;;;5071939;28;20056;-82
2021/09/10 02:31:36;;;;;;;32.72;22.48;;;19.10;99.90;;;;;;5085515;28;20407;-82
2021/09/10 02:34:02;;;;;;;31.23;22.00;;;19.10;99.90;;;;;;5071192;28;20040;-83
2021/09/10 02:36:27;;;;;;;30.17;22.20;;;19.10;99.90;;;;;;5073164;28;20052;-81
2021/09/10 02:38:53;;;;;;;27.90;21.15;;;19.10;99.90;;;;;;5058046;28;20044;-85
2021/09/10 02:41:19;;;;;;;29.67;22.05;;;19.10;99.90;;;;;;5053268;28;20042;-85
2021/09/10 02:43:45;;;;;;;27.77;20.52;;;19.20;99.90;;;;;;5068004;28;20037;-83
2021/09/10 02:46:11;;;;;;;31.40;20.63;;;19.20;99.90;;;;;;5066839;28;20132;-84
2021/09/10 02:48:37;;;;;;;26.30;19.58;;;19.20;99.90;;;;;;5072646;28;20058;-85
2021/09/10 02:51:03;;;;;;;27.45;19.52;;;19.20;99.90;;;;;;5091554;28;20451;-86
2021/09/10 02:53:29;;;;;;;28.15;19.38;;;19.20;99.90;;;;;;5088621;28;20104;-83
2021/09/10 02:55:56;;;;;;;25.65;18.70;;;19.20;99.90;;;;;;5072016;28;20364;-85
2021/09/10 02:58:23;;;;;;;32.25;19.23;;;19.10;99.90;;;;;;5071384;28;20079;-82
2021/09/10 03:00:49;;;;;;;29.83;19.67;;;19.20;99.90;;;;;;5054176;28;20360;-82
2021/09/10 03:03:15;;;;;;;24.45;18.63;;;19.10;99.90;;;;;;5032900;28;20068;-81
2021/09/10 03:05:40;;;;;;;26.20;19.65;;;19.20;99.90;;;;;;5049891;28;20140;-84
2021/09/10 03:08:06;;;;;;;24.95;18.85;;;19.10;99.90;;;;;;5088270;28;20142;-82
2021/09/10 03:10:32;;;;;;;25.80;18.73;;;19.10;99.90;;;;;;5051431;28;20119;-82
2021/09/10 03:12:57;;;;;;;26.80;20.00;;;19.20;99.90;;;;;;5084963;28;20079;-82
2021/09/10 03:15:23;;;;;;;31.05;21.65;;;19.10;99.90;;;;;;5069727;28;20048;-80
2021/09/10 03:17:49;;;;;;;30.20;19.85;;;19.10;99.90;;;;;;5071201;28;20048;-83
2021/09/10 03:20:15;;;;;;;31.08;22.17;;;19.20;99.90;;;;;;5071345;28;20051;-84
2021/09/10 03:22:41;;;;;;;29.50;22.15;;;19.10;99.90;;;;;;5091433;28;20086;-82
2021/09/10 03:25:07;;;;;;;31.10;21.90;;;19.10;99.90;;;;;;5070205;28;20040;-83
2021/09/10 03:27:35;;;;;;;29.88;20.42;;;19.10;99.90;;;;;;5071051;28;20060;-81
2021/09/10 03:30:04;;;;;;;32.03;21.65;;;19.10;99.90;;;;;;5083647;28;20056;-82
2021/09/10 03:32:29;;;;;;;31.88;23.05;;;19.10;99.90;;;;;;5072098;28;20174;-82
2021/09/10 03:34:55;;;;;;;30.80;21.65;;;19.10;99.90;;;;;;5071869;28;20127;-83
2021/09/10 03:37:21;;;;;;;31.42;22.45;;;19.20;99.90;;;;;;5073071;28;20040;-83
2021/09/10 03:39:46;;;;;;;31.20;22.50;;;19.10;99.90;;;;;;5071950;28;20036;-84
2021/09/10 03:42:12;;;;;;;30.80;22.17;;;19.10;99.90;;;;;;5065347;28;20040;-82
2021/09/10 03:44:38;;;;;;;30.75;22.25;;;19.20;99.90;;;;;;5053095;28;20043;-84
2021/09/10 03:47:05;;;;;;;31.73;22.08;;;19.20;99.90;;;;;;5056233;28;20048;-82
2021/09/10 03:49:32;;;;;;;34.55;23.42;;;19.20;99.90;;;;;;5070622;28;20403;-82
2021/09/10 03:51:58;;;;;;;31.00;23.15;;;19.10;99.90;;;;;;5090976;28;20122;-83
2021/09/10 03:54:23;;;;;;;34.58;22.92;;;19.10;99.90;;;;;;5046975;28;20119;-81
2021/09/10 03:56:49;;;;;;;33.35;22.13;;;19.10;99.90;;;;;;5090114;28;20071;-81
2021/09/10 03:59:16;;;;;;;27.45;20.95;;;18.90;99.90;;;;;;5069039;28;20522;-85
2021/09/10 04:01:42;;;;;;;30.35;21.50;;;19.00;99.90;;;;;;5052340;28;20466;-84
2021/09/10 04:04:08;;;;;;;29.95;21.48;;;18.90;99.90;;;;;;5088355;28;20048;-82
2021/09/10 04:06:52;;;;;;;28.33;20.80;;;18.90;99.90;;;;;;5071935;28;20075;-82
2021/09/10 04:09:18;;;;;;;33.10;21.70;;;18.90;99.90;;;;;;5071115;28;20114;-81
2021/09/10 04:11:44;;;;;;;30.02;20.55;;;18.90;99.90;;;;;;5053587;28;20181;-84
2021/09/10 04:14:09;;;;;;;30.38;20.90;;;18.90;99.90;;;;;;5089551;28;20032;-81
2021/09/10 04:16:35;;;;;;;31.55;21.35;;;18.80;99.90;;;;;;5052255;28;20032;-82
2021/09/10 04:19:02;;;;;;;30.00;21.08;;;18.80;99.90;;;;;;5071823;28;20157;-81
2021/09/10 04:21:28;;;;;;;30.98;20.80;;;18.70;99.90;;;;;;5089536;28;20040;-84
2021/09/10 04:23:54;;;;;;;28.80;20.10;;;18.80;99.90;;;;;;5052728;28;20496;-83
2021/09/10 04:26:20;;;;;;;26.25;19.88;;;18.70;99.90;;;;;;5067152;28;20454;-83
2021/09/10 04:28:47;;;;;;;27.05;19.23;;;18.70;99.90;;;;;;5051416;28;20036;-84
2021/09/10 04:31:13;;;;;;;29.55;20.02;;;18.70;99.90;;;;;;5088992;28;20178;-81
2021/09/10 04:33:40;;;;;;;28.83;20.63;;;18.60;99.90;;;;;;5083739;28;20036;-82
2021/09/10 04:36:06;;;;;;;32.95;21.50;;;18.70;99.90;;;;;;5053305;28;20040;-83
2021/09/10 04:38:31;;;;;;;31.13;21.23;;;18.60;99.90;;;;;;5054132;28;20062;-83
2021/09/10 04:40:57;;;;;;;34.55;22.77;;;18.60;99.90;;;;;;5068540;28;20055;-83
2021/09/10 04:43:23;;;;;;;31.90;23.77;;;18.60;99.90;;;;;;5069745;28;20051;-82
2021/09/10 04:45:48;;;;;;;39.00;24.63;;;18.70;99.90;;;;;;5069308;28;20055;-84
2021/09/10 04:48:15;;;;;;;34.22;25.05;;;18.70;99.90;;;;;;5050264;28;20054;-82
2021/09/10 04:50:41;;;;;;;38.40;24.83;;;18.80;99.90;;;;;;5088588;28;20078;-82
2021/09/10 04:53:07;;;;;;;40.92;27.15;;;18.90;99.90;;;;;;5054426;28;20495;-84
2021/09/10 04:55:33;;;;;;;38.88;28.50;;;18.90;99.90;;;;;;5068178;28;20072;-85
2021/09/10 04:57:59;;;;;;;44.05;29.15;;;18.90;99.90;;;;;;5087358;28;20078;-84
2021/09/10 05:00:24;;;;;;;40.17;28.75;;;18.90;99.90;;;;;;5069922;28;20066;-82
2021/09/10 05:02:51;;;;;;;41.35;28.02;;;18.90;99.90;;;;;;5049198;28;20386;-82
2021/09/10 05:05:17;;;;;;;43.92;30.33;;;19.00;99.90;;;;;;5054556;28;20032;-84
2021/09/10 05:07:42;;;;;;;43.83;31.40;;;19.00;99.90;;;;;;5068936;28;20034;-82
2021/09/10 05:10:09;;;;;;;45.67;32.00;;;19.00;99.90;;;;;;5067833;28;20036;-83
2021/09/10 05:12:35;;;;;;;47.45;31.75;;;19.00;99.90;;;;;;5068705;28;20028;-84
2021/09/10 05:15:01;;;;;;;46.63;31.92;;;19.00;99.90;;;;;;5050328;28;20040;-82
2021/09/10 05:17:26;;;;;;;45.92;32.10;;;19.00;99.90;;;;;;5050897;28;20247;-84
2021/09/10 05:19:52;;;;;;;47.50;32.38;;;19.10;99.90;;;;;;5052659;28;20043;-82
2021/09/10 05:22:18;;;;;;;47.92;31.30;;;19.10;99.90;;;;;;5052188;28;20071;-82
2021/09/10 05:24:44;;;;;;;42.13;30.17;;;19.00;99.90;;;;;;5069782;28;20521;-82
2021/09/10 05:27:10;;;;;;;48.00;32.50;;;19.00;99.90;;;;;;5085128;28;20083;-82
2021/09/10 05:29:36;;;;;;;44.88;31.83;;;18.90;99.90;;;;;;5053754;28;20071;-83
2021/09/10 05:32:02;;;;;;;50.28;33.55;;;19.00;99.90;;;;;;5053253;28;20036;-83
2021/09/10 05:34:28;;;;;;;43.40;30.83;;;19.00;99.90;;;;;;5035325;28;20040;-83
2021/09/10 05:36:53;;;;;;;45.10;31.55;;;18.90;99.90;;;;;;5052708;28;20112;-80
2021/09/10 05:39:21;;;;;;;44.58;30.90;;;18.90;99.90;;;;;;5052008;28;20123;-82
2021/09/10 05:41:47;;;;;;;45.85;31.90;;;18.90;99.90;;;;;;5052565;28;20094;-83
2021/09/10 05:44:14;;;;;;;46.10;32.35;;;18.90;99.90;;;;;;5069240;28;20044;-83
2021/09/10 05:46:42;;;;;;;45.88;31.65;;;18.80;99.90;;;;;;5070893;28;20047;-81
2021/09/10 05:49:10;;;;;;;46.70;33.42;;;18.80;99.90;;;;;;5068076;28;20056;-82
2021/09/10 05:51:37;;;;;;;38.65;26.95;;;18.80;99.90;;;;;;5053946;28;20217;-78
2021/09/10 05:54:03;;;;;;;16.88;12.85;;;18.90;99.90;;;;;;5069776;28;20043;-77
2021/09/10 05:56:29;;;;;;;40.38;29.08;;;19.20;99.90;;;;;;5058344;28;20049;-78
2021/09/10 05:58:55;;;;;;;22.33;15.73;;;19.40;99.90;;;;;;5062527;28;20044;-77
2021/09/10 06:01:20;;;;;;;20.80;15.80;;;19.50;99.90;;;;;;5059861;28;20072;-78
2021/09/10 06:03:46;;;;;;;24.25;16.88;;;19.60;99.90;;;;;;5066404;28;20357;-79
2021/09/10 06:06:12;;;;;;;24.50;16.67;;;19.80;99.90;;;;;;5039564;28;20044;-78
2021/09/10 06:08:38;;;;;;;31.10;19.30;;;19.90;99.90;;;;;;5044518;28;20485;-77
2021/09/10 06:11:05;;;;;;;26.40;18.20;;;20.00;99.90;;;;;;5048264;28;20498;-77
2021/09/10 06:13:30;;;;;;;24.33;18.50;;;20.00;99.90;;;;;;5064849;28;20133;-78
2021/09/10 06:15:56;;;;;;;26.55;19.77;;;20.10;99.90;;;;;;5051573;28;20133;-77
2021/09/10 06:18:22;;;;;;;28.27;19.25;;;20.10;99.90;;;;;;5065407;28;20048;-77
2021/09/10 06:20:48;;;;;;;26.13;19.65;;;20.20;99.90;;;;;;5046636;28;20028;-77
2021/09/10 06:23:14;;;;;;;32.35;22.20;;;20.20;99.90;;;;;;5065466;28;20475;-78
2021/09/10 06:25:40;;;;;;;27.52;19.77;;;20.20;99.90;;;;;;5070559;28;20118;-77
2021/09/10 06:28:08;;;;;;;38.88;28.20;;;20.20;99.90;;;;;;5046871;28;20431;-78
2021/09/10 06:30:34;;;;;;;27.60;19.75;;;20.20;99.90;;;;;;5062113;28;20051;-78
2021/09/10 06:33:00;;;;;;;37.00;25.17;;;20.20;99.90;;;;;;5044487;28;20125;-78
2021/09/10 06:35:26;;;;;;;38.53;28.60;;;20.20;99.90;;;;;;5069833;28;20472;-77
2021/09/10 06:37:52;;;;;;;43.38;30.35;;;20.10;99.90;;;;;;5050151;28;20048;-78
2021/09/10 06:40:17;;;;;;;27.27;21.58;;;19.90;99.90;;;;;;5063882;28;20048;-76
2021/09/10 06:42:43;;;;;;;28.42;20.88;;;20.00;99.90;;;;;;5063626;28;20055;-76
2021/09/10 06:45:10;;;;;;;39.10;27.15;;;20.10;99.90;;;;;;5054668;28;20048;-77
2021/09/10 06:47:36;;;;;;;34.88;25.30;;;20.20;99.90;;;;;;5069607;28;20119;-77
2021/09/10 06:50:07;;;;;;;36.40;23.42;;;20.30;99.90;;;;;;5072155;28;20126;-76
2021/09/10 06:52:33;;;;;;;33.50;21.90;;;20.40;99.90;;;;;;5066998;28;20045;-75
2021/09/10 06:54:59;;;;;;;31.58;21.30;;;20.50;99.90;;;;;;5073836;28;20494;-75
2021/09/10 06:57:27;;;;;;;31.20;21.13;;;20.50;99.90;;;;;;5067575;28;20089;-75
2021/09/10 06:59:53;;;;;;;42.75;28.65;;;20.60;99.90;;;;;;5073597;28;20044;-76
2021/09/10 07:02:19;;;;;;;32.78;21.98;;;20.60;99.90;;;;;;5071446;28;20380;-77
2021/09/10 07:04:45;;;;;;;29.88;22.63;;;20.60;99.90;;;;;;5071830;28;21966;-75
2021/09/10 07:07:11;;;;;;;32.88;22.75;;;20.60;99.90;;;;;;5047642;28;20044;-75
2021/09/10 07:09:39;;;;;;;27.50;21.60;;;20.70;99.90;;;;;;5037882;28;20044;-77
2021/09/10 07:12:07;;;;;;;30.50;23.77;;;20.70;99.90;;;;;;5062086;28;20043;-75
2021/09/10 07:14:33;;;;;;;33.53;24.65;;;20.80;99.90;;;;;;5060143;28;20064;-76
2021/09/10 07:16:59;;;;;;;27.65;22.05;;;20.70;99.90;;;;;;5051697;28;20109;-77
2021/09/10 07:19:25;;;;;;;27.42;21.08;;;20.70;99.90;;;;;;5050087;28;20036;-77
2021/09/10 07:21:51;;;;;;;29.55;20.95;;;20.90;99.90;;;;;;5073267;28;20476;-78
2021/09/10 07:24:16;;;;;;;33.08;23.13;;;20.80;99.90;;;;;;5072825;28;20376;-78
2021/09/10 07:26:42;;;;;;;34.72;24.95;;;20.90;99.90;;;;;;5053962;28;20055;-77
2021/09/10 07:29:08;;;;;;;33.92;25.38;;;20.80;99.90;;;;;;5069760;28;20047;-77
2021/09/10 07:31:34;;;;;;;32.33;26.20;;;20.90;99.90;;;;;;5051336;28;20040;-77
2021/09/10 07:34:00;;;;;;;32.17;22.55;;;20.90;99.90;;;;;;5050695;28;20518;-77
2021/09/10 07:36:25;;;;;;;30.40;23.52;;;20.80;99.90;;;;;;5040703;28;20048;-79
2021/09/10 07:38:51;;;;;;;40.83;30.80;;;20.90;99.90;;;;;;5053136;28;20097;-76
2021/09/10 07:41:17;;;;;;;30.23;20.70;;;21.00;99.90;;;;;;5055541;28;20052;-79
2021/09/10 07:43:43;;;;;;;40.67;32.80;;;21.00;99.90;;;;;;5052220;28;20461;-85
2021/09/10 07:46:10;;;;;;;38.65;30.63;;;20.90;99.90;;;;;;5042579;28;20456;-82
2021/09/10 07:48:36;;;;;;;46.05;34.58;;;20.90;99.90;;;;;;5055132;28;20036;-81
2021/09/10 07:51:02;;;;;;;45.67;34.05;;;20.80;99.90;;;;;;5066009;28;20051;-82
2021/09/10 07:53:28;;;;;;;48.90;35.53;;;20.90;99.90;;;;;;5078699;28;20059;-83
2021/09/10 07:55:55;;;;;;;45.90;34.13;;;21.00;99.90;;;;;;5074676;28;20142;-80
2021/09/10 07:58:21;;;;;;;51.63;34.78;;;21.10;99.90;;;;;;5074391;28;20052;-82
2021/09/10 08:00:47;;;;;;;52.88;37.03;;;21.20;99.90;;;;;;5073528;28;20097;-84
2021/09/10 08:03:13;;;;;;;53.15;36.38;;;21.30;99.90;;;;;;5056890;28;20052;-84
2021/09/10 08:05:39;;;;;;;49.50;36.08;;;21.30;99.90;;;;;;5054100;28;20048;-83
2021/09/10 08:08:05;;;;;;;47.63;35.22;;;21.40;99.90;;;;;;5072153;28;20036;-82
2021/09/10 08:10:31;;;;;;;48.72;35.53;;;21.50;99.90;;;;;;5093130;28;20032;-84
2021/09/10 08:12:57;;;;;;;48.88;35.58;;;21.60;99.90;;;;;;5072864;28;20105;-81
2021/09/10 08:15:23;;;;;;;50.67;36.35;;;21.70;99.90;;;;;;5092588;28;20414;-82
2021/09/10 08:17:49;;;;;;;51.15;35.17;;;21.80;99.90;;;;;;5074046;28;20040;-82
2021/09/10 08:20:14;;;;;;;49.35;36.22;;;21.90;99.90;;;;;;5074366;28;20415;-83
2021/09/10 08:22:41;;;;;;;54.00;36.20;;;22.00;99.90;;;;;;5089986;28;20028;-82
2021/09/10 08:25:09;;;;;;;50.88;36.78;;;22.00;99.90;;;;;;5050468;28;20413;-84
2021/09/10 08:27:36;;;;;;;54.75;38.13;;;22.10;99.90;;;;;;5050348;28;20055;-82
2021/09/10 08:30:03;;;;;;;52.60;37.28;;;22.00;99.90;;;;;;5049251;28;20048;-80
2021/09/10 08:32:29;;;;;;;50.60;38.45;;;22.00;99.90;;;;;;5069438;28;20040;-81
2021/09/10 08:34:55;;;;;;;51.10;37.13;;;22.00;99.90;;;;;;5046637;28;20043;-82
2021/09/10 08:37:21;;;;;;;58.90;40.22;;;21.90;99.90;;;;;;5043403;28;20047;-81
2021/09/10 08:39:47;;;;;;;54.75;39.25;;;21.90;99.90;;;;;;5071162;28;20140;-79
2021/09/10 08:42:12;;;;;;;54.97;37.85;;;22.00;99.90;;;;;;5062401;28;20471;-81
2021/09/10 08:44:41;;;;;;;53.50;37.67;;;22.00;99.90;;;;;;5064575;28;20044;-81
2021/09/10 08:47:08;;;;;;;51.40;38.42;;;22.00;99.90;;;;;;5057872;28;20475;-80
2021/09/10 08:49:34;;;;;;;51.10;37.78;;;21.90;99.90;;;;;;5059860;28;20491;-80
2021/09/10 08:52:00;;;;;;;59.75;41.10;;;21.80;99.90;;;;;;5070914;28;20075;-81
2021/09/10 08:54:26;;;;;;;55.28;38.92;;;21.80;99.90;;;;;;5073798;28;20047;-79
2021/09/10 08:56:53;;;;;;;38.88;28.95;;;21.80;99.90;;;;;;5067543;28;20150;-78
2021/09/10 08:59:20;;;;;;;37.17;28.15;;;21.80;99.90;;;;;;5052017;28;20035;-78
2021/09/10 09:01:54;;;;;;;55.25;38.17;;;21.70;99.90;;;;;;5052303;28;20517;-78
2021/09/10 09:04:28;;;;;;;59.10;39.35;;;21.80;99.90;;;;;;5055940;28;20088;-78
2021/09/10 09:06:55;;;;;;;54.85;38.90;;;21.80;99.90;;;;;;5063578;28;20097;-80
2021/09/10 09:09:46;;;;;;;52.85;39.15;;;21.80;99.90;;;;;;5063651;28;20035;-80
2021/09/10 09:12:12;;;;;;;56.22;40.05;;;21.80;99.90;;;;;;5038943;28;20037;-81
2021/09/10 09:14:57;;;;;;;54.78;39.00;;;21.80;99.90;;;;;;5055087;28;20064;-79
2021/09/10 09:17:28;;;;;;;52.67;39.38;;;21.70;99.90;;;;;;5054812;28;20043;-79
2021/09/10 09:20:16;;;;;;;51.65;37.75;;;21.70;99.90;;;;;;5089452;28;20050;-81
2021/09/10 09:22:56;;;;;;;54.53;39.20;;;21.80;99.90;;;;;;5050175;28;20434;-80
2021/09/10 09:25:27;;;;;;;55.38;38.58;;;21.70;99.90;;;;;;5052699;28;20055;-79
2021/09/10 09:27:54;;;;;;;54.00;38.50;;;21.70;99.90;;;;;;5088647;28;20525;-83
2021/09/10 09:30:35;;;;;;;54.65;38.05;;;21.70;99.90;;;;;;5071130;28;20479;-80
2021/09/10 09:33:02;;;;;;;53.38;38.88;;;21.70;99.90;;;;;;5068338;28;20040;-80
2021/09/10 09:35:32;;;;;;;54.80;39.50;;;21.70;99.90;;;;;;5088806;28;20028;-81
2021/09/10 09:37:58;;;;;;;50.60;38.75;;;21.70;99.90;;;;;;5052561;28;20065;-77
2021/09/10 09:40:34;;;;;;;54.33;39.55;;;21.70;99.90;;;;;;5074489;28;20051;-78
2021/09/10 09:43:18;;;;;;;53.75;38.25;;;21.80;99.90;;;;;;5053146;28;20359;-75
2021/09/10 09:45:49;;;;;;;55.95;37.67;;;21.70;99.90;;;;;;5053738;28;20694;-81
2021/09/10 09:48:16;;;;;;;54.80;37.65;;;21.70;99.90;;;;;;5067659;28;20048;-81
2021/09/10 09:50:43;;;;;;;51.72;37.47;;;21.70;99.90;;;;;;5053525;28;20047;-83
2021/09/10 09:53:09;;;;;;;56.58;37.60;;;21.60;99.90;;;;;;5072623;28;20668;-81
2021/09/10 09:55:35;;;;;;;55.20;37.45;;;21.60;99.90;;;;;;5055877;28;20174;-81
2021/09/10 09:58:04;;;;;;;58.47;37.15;;;21.60;99.90;;;;;;5072209;28;20133;-81
2021/09/10 10:00:35;;;;;;;54.05;38.80;;;21.70;99.90;;;;;;5066006;28;20123;-78
2021/09/10 10:03:02;;;;;;;54.80;36.95;;;21.70;99.90;;;;;;5047659;28;20048;-76
2021/09/10 10:05:30;;;;;;;56.65;38.70;;;21.80;99.90;;;;;;5062931;28;20158;-80
2021/09/10 10:08:06;;;;;;;65.85;41.58;;;21.80;99.90;;;;;;5061197;28;20499;-80
2021/09/10 10:10:52;;;;;;;64.32;41.45;;;21.80;99.90;;;;;;5069326;28;20161;-81
2021/09/10 10:13:32;;;;;;;60.47;39.88;;;21.90;99.90;;;;;;5051779;28;20055;-82
2021/09/10 10:15:58;;;;;;;61.83;40.78;;;21.80;99.90;;;;;;5068468;28;20052;-79
2021/09/10 10:18:44;;;;;;;65.68;41.58;;;21.80;99.90;;;;;;5057083;28;20036;-76
2021/09/10 10:21:14;;;;;;;60.47;41.03;;;21.80;99.90;;;;;;5053173;28;20075;-80
2021/09/10 10:23:43;;;;;;;68.72;41.92;;;21.80;99.90;;;;;;5051238;28;20052;-80
2021/09/10 10:26:10;;;;;;;64.00;41.00;;;21.90;99.90;;;;;;5053513;28;20229;-82
2021/09/10 10:28:53;;;;;;;60.53;40.50;;;21.90;99.90;;;;;;5067194;28;20410;-78
2021/09/10 10:32:05;;;;;;;59.97;40.38;;;21.90;99.90;;;;;;5062628;28;20040;-77
2021/09/10 10:34:33;;;;;;;63.03;42.80;;;21.90;99.90;;;;;;5058380;28;20076;-80
2021/09/10 10:36:59;;;;;;;62.70;41.92;;;22.10;99.90;;;;;;5052484;28;20048;-80
2021/09/10 10:39:29;;;;;;;63.97;42.13;;;22.00;99.90;;;;;;5073144;28;20063;-82
2021/09/10 10:41:56;;;;;;;59.35;40.38;;;22.10;99.90;;;;;;5057385;28;20056;-82
2021/09/10 10:44:35;;;;;;;42.22;29.30;;;22.10;99.90;;;;;;5058506;28;20075;-79
2021/09/10 10:47:31;;;;;;;56.38;38.78;;;22.20;99.90;;;;;;5056837;28;20036;-79
2021/09/10 10:49:58;;;;;;;59.28;42.03;;;22.30;99.90;;;;;;5051862;28;20052;-77
2021/09/10 10:52:24;;;;;;;59.85;40.83;;;22.30;99.90;;;;;;5073675;28;20040;-78
2021/09/10 10:55:27;;;;;;;57.95;39.17;;;22.40;99.90;;;;;;5074871;28;20043;-79
2021/09/10 10:57:54;;;;;;;54.78;39.55;;;22.40;99.90;;;;;;5050529;28;20063;-80
2021/09/10 11:00:32;;;;;;;57.13;37.55;;;22.40;99.90;;;;;;5066276;28;20119;-80
2021/09/10 11:03:13;;;;;;;56.13;40.08;;;22.40;99.90;;;;;;5074099;28;20050;-80
2021/09/10 11:05:39;;;;;;;60.97;40.80;;;22.30;99.90;;;;;;5044115;28;20040;-77
2021/09/10 11:08:05;;;;;;;57.20;40.13;;;22.20;99.90;;;;;;5055584;28;20036;-76
2021/09/10 11:10:31;;;;;;;56.13;39.67;;;22.40;99.90;;;;;;5052358;28;20498;-77
2021/09/10 11:12:58;;;;;;;61.13;39.83;;;22.40;99.90;;;;;;5053061;28;20055;-78
2021/09/10 11:15:30;;;;;;;49.65;37.15;;;22.40;99.90;;;;;;5054679;28;20048;-76
2021/09/10 11:18:00;;;;;;;51.15;37.33;;;22.60;99.90;;;;;;5069799;28;20062;-76
2021/09/10 11:20:43;;;;;;;48.05;33.00;;;22.70;99.90;;;;;;5043504;28;20040;-75
2021/09/10 11:23:11;;;;;;;48.95;33.60;;;22.90;99.90;;;;;;5069363;28;20051;-77
2021/09/10 11:25:55;;;;;;;44.47;34.10;;;22.90;99.90;;;;;;5068850;28;20036;-75
2021/09/10 11:28:22;;;;;;;44.25;32.80;;;23.10;99.90;;;;;;5067652;28;20213;-76
2021/09/10 11:30:49;;;;;;;44.83;33.67;;;23.20;99.90;;;;;;5070980;28;20044;-82
2021/09/10 11:33:16;;;;;;;42.47;34.15;;;23.40;99.90;;;;;;5070251;28;20112;-79
2021/09/10 11:35:42;;;;;;;39.03;32.53;;;23.50;99.90;;;;;;5045411;28;20052;-78
2021/09/10 11:38:22;;;;;;;41.40;32.60;;;23.70;99.90;;;;;;5054886;28;20196;-77
2021/09/10 11:40:59;;;;;;;41.85;32.58;;;23.80;99.90;;;;;;5051184;28;20055;-77
2021/09/10 11:43:31;;;;;;;41.90;32.15;;;24.00;99.90;;;;;;5053219;28;20068;-76
2021/09/10 11:46:00;;;;;;;40.25;31.60;;;24.00;99.90;;;;;;5068347;28;20049;-77
2021/09/10 11:48:33;;;;;;;38.47;30.70;;;24.10;99.90;;;;;;5081688;28;20040;-78
2021/09/10 11:51:14;;;;;;;41.85;32.42;;;24.10;99.90;;;;;;5051696;28;20451;-76
2021/09/10 11:53:45;;;;;;;36.22;29.50;;;24.20;99.90;;;;;;5070155;28;20085;-78
2021/09/10 11:56:13;;;;;;;37.53;30.23;;;24.20;99.90;;;;;;5070006;28;20531;-77
2021/09/10 11:58:45;;;;;;;38.33;30.65;;;24.30;99.90;;;;;;5069419;28;20054;-77
2021/09/10 12:01:20;;;;;;;37.40;30.50;;;24.40;99.90;;;;;;5070807;28;20108;-76
2021/09/10 12:03:59;;;;;;;39.90;28.45;;;24.60;99.90;;;;;;5070793;28;20117;-76
2021/09/10 12:06:27;;;;;;;33.65;27.52;;;24.90;99.90;;;;;;5068829;28;20058;-77
2021/09/10 12:09:24;;;;;;;34.40;27.55;;;25.00;99.90;;;;;;5069875;28;20052;-81
2021/09/10 12:12:37;;;;;;;32.25;27.23;;;24.90;99.90;;;;;;5055160;28;20089;-79
2021/09/10 12:15:05;;;;;;;36.65;28.65;;;24.90;99.90;;;;;;4984891;28;20176;-79
2021/09/10 12:17:37;;;;;;;36.58;29.77;;;24.80;99.90;;;;;;5010328;28;20052;-76
2021/09/10 12:20:17;;;;;;;40.30;29.60;;;24.70;99.90;;;;;;5008978;28;20163;-77
2021/09/10 12:22:56;;;;;;;36.55;28.63;;;24.60;99.90;;;;;;5011457;28;20050;-76
2021/09/10 12:25:24;;;;;;;36.67;28.50;;;24.90;99.90;;;;;;5024706;28;20099;-77
2021/09/10 12:28:10;;;;;;;34.20;28.85;;;25.20;99.90;;;;;;4992387;28;20136;-78
2021/09/10 12:30:48;;;;;;;35.38;27.20;;;25.30;99.90;;;;;;4992605;28;20046;-77
2021/09/10 12:33:18;;;;;;;38.35;27.35;;;25.50;99.90;;;;;;5019457;28;20427;-76